Time;durP1;ratioP1;P1;durP2;ratioP2;P2;SDS_P1;SDS_P2;PMS_P1;PMS_P2;Temp;Humidity;BMP_temperature;BMP_pressure;BME280_temperature;BME280_humidity;BME280_pressure;Samples;Min_cycle;Max_cycle;Signal;HPM_P1;HPM_P2
2021/09/08 00:01:59;;;;;;;12.53;9.60;;;;;;;;;;5073906;28;20848;-68
2021/09/08 00:04:26;;;;;;;10.57;9.53;;;;;;;;;;5073836;28;20479;-69
2021/09/08 00:06:53;;;;;;;13.77;9.67;;;;;;;;;;5073841;28;20464;-68
2021/09/08 00:09:21;;;;;;;14.73;9.60;;;;;;;;;;5073774;28;20451;-68
2021/09/08 00:11:48;;;;;;;12.20;10.20;;;;;;;;;;5073315;28;20444;-68
2021/09/08 00:14:16;;;;;;;11.30;9.53;;;;;;;;;;5074495;28;20456;-68
2021/09/08 00:16:44;;;;;;;12.83;9.10;;;;;;;;;;5074221;28;20450;-68
2021/09/08 00:19:11;;;;;;;11.53;9.70;;;;;;;;;;5074379;28;20483;-68
2021/09/08 00:21:38;;;;;;;13.60;10.60;;;;;;;;;;5073380;28;20441;-68
2021/09/08 00:24:06;;;;;;;11.23;9.23;;;;;;;;;;5073684;28;20870;-68
2021/09/08 00:26:33;;;;;;;11.10;8.90;;;;;;;;;;5073263;28;20936;-68
2021/09/08 00:29:00;;;;;;;13.10;9.50;;;;;;;;;;5074215;28;20456;-68
2021/09/08 00:31:28;;;;;;;13.13;8.73;;;;;;;;;;5073560;28;20441;-68
2021/09/08 00:33:56;;;;;;;11.53;9.60;;;;;;;;;;5073197;28;20445;-68
2021/09/08 00:36:23;;;;;;;14.40;9.50;;;;;;;;;;5073473;28;20443;-69
2021/09/08 00:38:50;;;;;;;11.30;9.60;;;;;;;;;;5073348;28;20440;-68
2021/09/08 00:41:18;;;;;;;14.20;9.10;;;;;;;;;;5073124;28;20445;-68
2021/09/08 00:43:45;;;;;;;12.23;9.87;;;;;;;;;;5073791;28;20445;-68
2021/09/08 00:46:13;;;;;;;11.27;9.40;;;;;;;;;;5074180;28;20447;-69
2021/09/08 00:48:41;;;;;;;11.90;10.03;;;;;;;;;;5073389;28;20466;-68
2021/09/08 00:51:08;;;;;;;11.43;9.90;;;;;;;;;;5073392;28;20445;-68
2021/09/08 00:53:35;;;;;;;14.40;10.57;;;;;;;;;;5073336;28;20446;-68
2021/09/08 00:56:04;;;;;;;11.87;10.60;;;;;;;;;;5073309;28;20443;-68
2021/09/08 00:58:33;;;;;;;15.33;9.37;;;;;;;;;;5073145;28;20441;-68
2021/09/08 01:01:00;;;;;;;11.40;9.90;;;;;;;;;;5073200;28;20487;-68
2021/09/08 01:03:27;;;;;;;14.97;12.10;;;;;;;;;;5073219;28;20447;-68
2021/09/08 01:05:56;;;;;;;12.40;11.10;;;;;;;;;;5073390;28;20450;-68
2021/09/08 01:08:23;;;;;;;12.20;10.90;;;;;;;;;;5076814;28;20455;-68
2021/09/08 01:10:51;;;;;;;15.33;9.97;;;;;;;;;;5077201;28;20453;-68
2021/09/08 01:13:18;;;;;;;12.40;10.03;;;;;;;;;;5077519;28;20447;-68
2021/09/08 01:15:55;;;;;;;12.17;10.43;;;;;;;;;;5077476;28;20445;-68
2021/09/08 01:18:22;;;;;;;11.73;10.47;;;;;;;;;;5077223;28;20433;-67
2021/09/08 01:20:49;;;;;;;13.13;10.53;;;;;;;;;;5077625;28;20490;-69
2021/09/08 01:23:18;;;;;;;15.27;11.03;;;;;;;;;;5077427;28;20442;-68
2021/09/08 01:25:45;;;;;;;12.47;10.50;;;;;;;;;;5077593;28;20450;-68
2021/09/08 01:28:12;;;;;;;13.50;11.30;;;;;;;;;;5076461;28;20444;-68
2021/09/08 01:30:41;;;;;;;13.47;11.23;;;;;;;;;;5076460;28;20452;-68
2021/09/08 01:33:08;;;;;;;13.10;11.10;;;;;;;;;;5077186;28;20856;-68
2021/09/08 01:35:36;;;;;;;16.57;12.57;;;;;;;;;;5076961;28;20437;-68
2021/09/08 01:38:03;;;;;;;13.40;11.00;;;;;;;;;;5077271;28;20724;-68
2021/09/08 01:40:32;;;;;;;13.13;11.60;;;;;;;;;;5076537;28;20476;-68
2021/09/08 01:42:59;;;;;;;14.67;10.90;;;;;;;;;;5076546;28;20448;-68
2021/09/08 01:45:27;;;;;;;13.03;11.27;;;;;;;;;;5076531;28;20463;-68
2021/09/08 01:47:54;;;;;;;18.83;11.27;;;;;;;;;;5076482;28;20441;-68
2021/09/08 01:50:21;;;;;;;15.57;12.33;;;;;;;;;;5077054;28;20476;-68
2021/09/08 01:52:49;;;;;;;13.27;11.37;;;;;;;;;;5076041;28;20967;-68
2021/09/08 01:55:16;;;;;;;11.97;10.73;;;;;;;;;;5076496;28;20447;-68
2021/09/08 01:57:45;;;;;;;17.23;10.83;;;;;;;;;;5076274;28;20433;-68
2021/09/08 02:00:13;;;;;;;14.00;11.10;;;;;;;;;;5076426;28;20488;-68
2021/09/08 02:02:41;;;;;;;12.80;11.03;;;;;;;;;;5076258;28;20437;-68
2021/09/08 02:05:08;;;;;;;12.90;11.37;;;;;;;;;;5077008;28;20437;-68
2021/09/08 02:07:36;;;;;;;15.30;12.90;;;;;;;;;;5076155;28;20429;-68
2021/09/08 02:10:04;;;;;;;11.90;10.60;;;;;;;;;;5076109;28;20457;-68
2021/09/08 02:12:31;;;;;;;12.00;10.27;;;;;;;;;;5076814;28;20444;-68
2021/09/08 02:14:59;;;;;;;17.30;12.70;;;;;;;;;;5076598;28;20436;-68
2021/09/08 02:17:26;;;;;;;16.93;12.20;;;;;;;;;;5076005;28;20804;-68
2021/09/08 02:19:54;;;;;;;15.17;12.30;;;;;;;;;;5075160;28;20473;-68
2021/09/08 02:22:21;;;;;;;14.93;12.10;;;;;;;;;;5075519;28;20932;-68
2021/09/08 02:24:48;;;;;;;13.93;12.37;;;;;;;;;;5075615;28;20445;-68
2021/09/08 02:27:16;;;;;;;16.67;11.60;;;;;;;;;;5075442;28;20448;-68
2021/09/08 02:29:43;;;;;;;13.83;11.37;;;;;;;;;;5075813;28;20781;-68
2021/09/08 02:32:11;;;;;;;19.47;11.90;;;;;;;;;;5075703;28;20804;-68
2021/09/08 02:34:39;;;;;;;14.40;11.47;;;;;;;;;;5075653;28;20436;-68
2021/09/08 02:37:06;;;;;;;19.10;13.47;;;;;;;;;;5076231;28;20440;-68
2021/09/08 02:39:34;;;;;;;15.03;12.37;;;;;;;;;;5075519;28;20447;-68
2021/09/08 02:42:01;;;;;;;14.40;11.83;;;;;;;;;;5075744;28;20531;-68
2021/09/08 02:44:28;;;;;;;15.37;13.77;;;;;;;;;;5075463;28;20449;-68
2021/09/08 02:46:56;;;;;;;20.60;11.77;;;;;;;;;;5075917;28;20438;-68
2021/09/08 02:49:24;;;;;;;16.60;12.43;;;;;;;;;;5075469;28;20971;-68
2021/09/08 02:51:51;;;;;;;20.00;13.80;;;;;;;;;;5075227;28;20532;-68
2021/09/08 02:54:19;;;;;;;12.57;11.27;;;;;;;;;;5075218;28;20446;-68
2021/09/08 02:56:46;;;;;;;17.03;12.87;;;;;;;;;;5075570;28;20441;-68
2021/09/08 02:59:13;;;;;;;18.13;11.57;;;;;;;;;;5074989;28;20533;-68
2021/09/08 03:01:40;;;;;;;14.93;11.53;;;;;;;;;;5075001;28;20484;-68
2021/09/08 03:04:07;;;;;;;13.87;12.43;;;;;;;;;;5074658;28;20448;-68
2021/09/08 03:06:36;;;;;;;17.13;13.33;;;;;;;;;;5074942;28;20928;-68
2021/09/08 03:09:03;;;;;;;15.70;12.53;;;;;;;;;;5074978;28;20792;-68
2021/09/08 03:11:30;;;;;;;16.53;11.80;;;;;;;;;;5075324;28;20441;-67
2021/09/08 03:13:57;;;;;;;14.13;12.00;;;;;;;;;;5074878;28;20431;-68
2021/09/08 03:16:25;;;;;;;17.03;13.10;;;;;;;;;;5074804;28;20443;-68
2021/09/08 03:18:52;;;;;;;15.50;12.17;;;;;;;;;;5075015;28;20446;-68
2021/09/08 03:21:19;;;;;;;15.43;12.60;;;;;;;;;;5074547;28;20484;-68
2021/09/08 03:23:47;;;;;;;16.70;12.53;;;;;;;;;;5075412;28;20444;-68
2021/09/08 03:26:15;;;;;;;14.23;12.73;;;;;;;;;;5074305;28;20915;-68
2021/09/08 03:28:42;;;;;;;15.37;12.50;;;;;;;;;;5074634;28;20802;-68
2021/09/08 03:31:09;;;;;;;21.43;14.20;;;;;;;;;;5073240;28;20963;-68
2021/09/08 03:33:36;;;;;;;17.20;13.00;;;;;;;;;;5074109;28;20445;-68
2021/09/08 03:36:03;;;;;;;14.77;13.20;;;;;;;;;;5074129;28;20937;-68
2021/09/08 03:38:31;;;;;;;17.00;13.20;;;;;;;;;;5074813;28;20804;-68
2021/09/08 03:40:59;;;;;;;13.70;12.10;;;;;;;;;;5074596;28;21000;-68
2021/09/08 03:43:26;;;;;;;14.93;13.47;;;;;;;;;;5073901;28;20449;-68
2021/09/08 03:45:54;;;;;;;17.50;12.70;;;;;;;;;;5073910;28;20449;-68
2021/09/08 03:48:21;;;;;;;16.43;13.27;;;;;;;;;;5074469;28;20443;-68
2021/09/08 03:50:48;;;;;;;18.03;13.20;;;;;;;;;;5074348;28;20439;-68
2021/09/08 03:53:15;;;;;;;15.17;13.63;;;;;;;;;;5073721;28;20447;-68
2021/09/08 03:55:42;;;;;;;18.00;12.53;;;;;;;;;;5073695;28;20446;-68
2021/09/08 03:58:11;;;;;;;18.53;13.57;;;;;;;;;;5073992;28;20442;-68
2021/09/08 04:00:38;;;;;;;16.90;12.33;;;;;;;;;;5074120;28;20477;-68
2021/09/08 04:03:05;;;;;;;18.83;14.63;;;;;;;;;;5073956;28;20445;-68
2021/09/08 04:05:32;;;;;;;17.00;13.67;;;;;;;;;;5073866;28;20939;-68
2021/09/08 04:07:59;;;;;;;14.80;13.30;;;;;;;;;;5073814;28;20464;-68
2021/09/08 04:10:27;;;;;;;18.67;13.80;;;;;;;;;;5073823;28;20448;-68
2021/09/08 04:12:54;;;;;;;19.13;12.87;;;;;;;;;;5073807;28;20536;-68
2021/09/08 04:15:22;;;;;;;16.07;12.70;;;;;;;;;;5073460;28;21005;-68
2021/09/08 04:17:50;;;;;;;17.83;13.30;;;;;;;;;;5073647;28;20471;-68
2021/09/08 04:20:17;;;;;;;18.60;13.73;;;;;;;;;;5073303;28;20992;-68
2021/09/08 04:22:44;;;;;;;16.70;13.93;;;;;;;;;;5073350;28;20457;-68
2021/09/08 04:25:12;;;;;;;18.50;14.00;;;;;;;;;;5073373;28;20944;-68
2021/09/08 04:27:39;;;;;;;18.40;14.10;;;;;;;;;;5071382;28;20847;-68
2021/09/08 04:30:07;;;;;;;23.13;14.20;;;;;;;;;;5071955;28;20450;-68
2021/09/08 04:32:35;;;;;;;16.40;13.53;;;;;;;;;;5072879;28;20444;-68
2021/09/08 04:35:03;;;;;;;17.30;15.20;;;;;;;;;;5072261;28;20812;-67
2021/09/08 04:37:32;;;;;;;19.43;15.30;;;;;;;;;;5072284;28;20533;-68
2021/09/08 04:39:59;;;;;;;14.93;13.33;;;;;;;;;;5072074;28;20482;-68
2021/09/08 04:42:26;;;;;;;18.10;14.57;;;;;;;;;;5071924;28;20438;-68
2021/09/08 04:44:53;;;;;;;19.37;14.20;;;;;;;;;;5072485;28;20871;-68
2021/09/08 04:47:20;;;;;;;20.20;14.60;;;;;;;;;;5072592;28;20942;-68
2021/09/08 04:49:49;;;;;;;18.93;13.97;;;;;;;;;;5072748;28;20560;-68
2021/09/08 04:52:16;;;;;;;20.60;15.93;;;;;;;;;;5072399;28;20943;-68
2021/09/08 04:54:43;;;;;;;20.33;15.80;;;;;;;;;;5072627;28;20866;-69
2021/09/08 04:57:10;;;;;;;16.13;13.80;;;;;;;;;;5082191;28;20444;-69
2021/09/08 04:59:38;;;;;;;19.50;14.63;;;;;;;;;;5093106;28;20447;-69
2021/09/08 05:02:05;;;;;;;19.80;13.97;;;;;;;;;;5093340;28;20480;-68
2021/09/08 05:04:32;;;;;;;20.27;15.50;;;;;;;;;;5093312;28;20447;-69
2021/09/08 05:07:01;;;;;;;20.57;13.80;;;;;;;;;;5092853;28;20443;-68
2021/09/08 05:09:28;;;;;;;17.40;13.90;;;;;;;;;;5093012;28;20455;-69
2021/09/08 05:11:55;;;;;;;19.90;14.43;;;;;;;;;;5092665;28;20447;-68
2021/09/08 05:14:22;;;;;;;21.73;13.93;;;;;;;;;;5092924;28;20452;-68
2021/09/08 05:16:49;;;;;;;20.30;15.03;;;;;;;;;;5092448;28;20451;-68
2021/09/08 05:19:16;;;;;;;17.33;14.13;;;;;;;;;;5092679;28;20444;-68
2021/09/08 05:21:44;;;;;;;17.60;13.10;;;;;;;;;;5093361;28;20484;-66
2021/09/08 05:24:12;;;;;;;18.53;13.90;;;;;;;;;;5092651;28;20535;-68
2021/09/08 05:26:39;;;;;;;17.83;15.90;;;;;;;;;;5091078;28;20448;-68
2021/09/08 05:29:07;;;;;;;21.27;15.03;;;;;;;;;;5093040;28;20448;-68
2021/09/08 05:31:34;;;;;;;25.53;14.93;;;;;;;;;;5093325;28;20445;-68
2021/09/08 05:34:01;;;;;;;52.47;33.53;;;;;;;;;;5092796;28;20444;-68
2021/09/08 05:36:28;;;;;;;19.30;14.07;;;;;;;;;;5092388;28;20440;-68
2021/09/08 05:38:55;;;;;;;23.63;15.00;;;;;;;;;;5092696;28;20448;-68
2021/09/08 05:41:24;;;;;;;18.03;15.10;;;;;;;;;;5092792;28;21006;-68
2021/09/08 05:43:51;;;;;;;21.90;14.67;;;;;;;;;;5092903;28;20438;-68
2021/09/08 05:46:19;;;;;;;17.37;14.17;;;;;;;;;;5092830;28;20482;-68
2021/09/08 05:48:46;;;;;;;20.03;15.03;;;;;;;;;;5092607;28;20468;-68
2021/09/08 05:51:13;;;;;;;18.00;14.40;;;;;;;;;;5093137;28;20532;-68
2021/09/08 05:53:41;;;;;;;20.97;15.47;;;;;;;;;;5093398;28;20983;-68
2021/09/08 05:56:08;;;;;;;18.47;14.47;;;;;;;;;;5096330;28;20448;-68
2021/09/08 05:58:36;;;;;;;17.97;14.20;;;;;;;;;;5094391;28;20440;-68
2021/09/08 06:01:04;;;;;;;15.70;13.90;;;;;;;;;;5095829;28;20991;-68
2021/09/08 06:03:31;;;;;;;18.30;14.43;;;;;;;;;;5095717;28;20444;-68
2021/09/08 06:05:58;;;;;;;25.13;14.33;;;;;;;;;;5095615;28;20956;-68
2021/09/08 06:08:25;;;;;;;29.60;16.07;;;;;;;;;;5096216;28;20447;-68
2021/09/08 06:10:52;;;;;;;20.23;15.70;;;;;;;;;;5096278;28;20494;-69
2021/09/08 06:13:20;;;;;;;20.80;15.10;;;;;;;;;;5095540;28;20480;-68
2021/09/08 06:15:48;;;;;;;18.97;14.77;;;;;;;;;;5096154;28;20455;-69
2021/09/08 06:18:16;;;;;;;19.40;15.83;;;;;;;;;;5095922;28;20449;-68
2021/09/08 06:20:43;;;;;;;19.63;14.63;;;;;;;;;;5095647;28;20439;-69
2021/09/08 06:23:11;;;;;;;20.70;14.73;;;;;;;;;;5095618;28;20446;-68
2021/09/08 06:25:39;;;;;;;16.57;12.67;;;;;;;;;;5096021;28;20444;-68
2021/09/08 06:28:06;;;;;;;31.00;14.63;;;;;;;;;;5093260;28;20462;-69
2021/09/08 06:30:33;;;;;;;19.23;14.87;;;;;;;;;;5095932;28;20518;-68
2021/09/08 06:33:02;;;;;;;22.67;14.70;;;;;;;;;;5095598;28;20941;-68
2021/09/08 06:35:29;;;;;;;20.33;14.33;;;;;;;;;;5095562;28;20440;-71
2021/09/08 06:37:56;;;;;;;23.47;13.93;;;;;;;;;;5095806;28;20499;-68
2021/09/08 06:40:23;;;;;;;17.80;14.90;;;;;;;;;;5095287;28;20438;-68
2021/09/08 06:42:54;;;;;;;24.83;16.43;;;;;;;;;;5095405;28;20487;-68
2021/09/08 06:45:21;;;;;;;20.53;15.10;;;;;;;;;;5095142;28;20455;-68
2021/09/08 06:47:48;;;;;;;21.50;15.33;;;;;;;;;;5094774;28;20436;-68
2021/09/08 06:50:16;;;;;;;18.90;17.00;;;;;;;;;;5095701;28;20473;-68
2021/09/08 06:52:44;;;;;;;17.80;15.57;;;;;;;;;;5094068;28;20442;-68
2021/09/08 06:55:11;;;;;;;20.87;15.60;;;;;;;;;;5094373;28;21098;-68
2021/09/08 06:57:38;;;;;;;20.37;14.73;;;;;;;;;;5093850;28;20448;-68
2021/09/08 07:00:06;;;;;;;18.77;14.53;;;;;;;;;;5094892;28;20452;-70
2021/09/08 07:02:33;;;;;;;16.93;13.87;;;;;;;;;;5095614;28;20481;-68
2021/09/08 07:05:01;;;;;;;17.43;15.00;;;;;;;;;;5094829;28;20445;-68
2021/09/08 07:07:29;;;;;;;20.20;15.80;;;;;;;;;;5095014;28;20440;-69
2021/09/08 07:09:56;;;;;;;17.80;14.13;;;;;;;;;;5095136;28;20443;-69
2021/09/08 07:12:24;;;;;;;21.13;16.93;;;;;;;;;;5094969;28;21025;-68
2021/09/08 07:14:51;;;;;;;24.00;15.10;;;;;;;;;;5094991;28;20440;-68
2021/09/08 07:17:18;;;;;;;20.10;14.83;;;;;;;;;;5094470;28;20445;-69
2021/09/08 07:19:45;;;;;;;17.83;14.60;;;;;;;;;;5094330;28;20802;-68
2021/09/08 07:22:12;;;;;;;17.20;14.70;;;;;;;;;;5094761;28;20482;-68
2021/09/08 07:24:41;;;;;;;17.50;14.20;;;;;;;;;;5094597;28;20440;-69
2021/09/08 07:27:09;;;;;;;16.93;13.63;;;;;;;;;;5094694;28;20439;-68
2021/09/08 07:29:36;;;;;;;22.63;16.10;;;;;;;;;;5093000;28;20790;-68
2021/09/08 07:32:05;;;;;;;24.83;15.57;;;;;;;;;;5094367;28;20864;-69
2021/09/08 07:34:32;;;;;;;18.67;14.27;;;;;;;;;;5094560;28;20444;-70
2021/09/08 07:36:59;;;;;;;21.30;14.47;;;;;;;;;;5094298;28;20438;-69
2021/09/08 07:39:27;;;;;;;17.83;14.10;;;;;;;;;;5094201;28;20436;-73
2021/09/08 07:41:55;;;;;;;19.10;14.43;;;;;;;;;;5094032;28;20469;-71
2021/09/08 07:44:22;;;;;;;21.17;15.40;;;;;;;;;;5094405;28;20490;-69
2021/09/08 07:46:50;;;;;;;19.27;15.93;;;;;;;;;;5094565;28;20438;-69
2021/09/08 07:49:17;;;;;;;20.00;14.63;;;;;;;;;;5093702;28;20481;-69
2021/09/08 07:51:44;;;;;;;17.93;13.13;;;;;;;;;;5094314;28;20437;-69
2021/09/08 07:54:11;;;;;;;18.37;14.10;;;;;;;;;;5094042;28;20914;-69
2021/09/08 07:56:39;;;;;;;21.30;13.80;;;;;;;;;;5094627;28;20440;-68
2021/09/08 07:59:07;;;;;;;18.20;14.37;;;;;;;;;;5092210;28;20463;-69
2021/09/08 08:01:35;;;;;;;20.10;14.90;;;;;;;;;;5093593;28;20477;-69
2021/09/08 08:04:02;;;;;;;28.23;19.90;;;;;;;;;;5094314;28;20443;-73
2021/09/08 08:06:29;;;;;;;21.83;12.57;;;;;;;;;;5094493;28;20443;-73
2021/09/08 08:08:56;;;;;;;17.83;13.70;;;;;;;;;;5093521;28;20471;-71
2021/09/08 08:11:23;;;;;;;18.07;13.57;;;;;;;;;;5094009;28;20453;-69
2021/09/08 08:13:51;;;;;;;16.03;13.70;;;;;;;;;;5093366;28;20447;-69
2021/09/08 08:16:19;;;;;;;19.87;13.93;;;;;;;;;;5093269;28;20439;-69
2021/09/08 08:18:46;;;;;;;16.77;13.10;;;;;;;;;;5093714;28;20535;-69
2021/09/08 08:21:14;;;;;;;24.70;14.70;;;;;;;;;;5093970;28;20445;-69
2021/09/08 08:23:41;;;;;;;16.23;14.00;;;;;;;;;;5093612;28;20537;-69
2021/09/08 08:26:08;;;;;;;17.30;13.50;;;;;;;;;;5093422;28;20482;-69
2021/09/08 08:28:35;;;;;;;14.60;12.00;;;;;;;;;;5093132;28;20453;-69
2021/09/08 08:31:03;;;;;;;24.23;13.60;;;;;;;;;;5091787;28;20452;-66
2021/09/08 08:33:31;;;;;;;21.53;14.03;;;;;;;;;;5093372;28;20951;-68
2021/09/08 08:35:58;;;;;;;19.07;15.40;;;;;;;;;;5091390;28;20449;-68
2021/09/08 08:38:26;;;;;;;15.23;13.13;;;;;;;;;;5093522;28;20444;-68
2021/09/08 08:40:53;;;;;;;19.93;13.23;;;;;;;;;;5093257;28;20936;-68
2021/09/08 08:43:20;;;;;;;17.83;15.37;;;;;;;;;;5093186;28;20584;-68
2021/09/08 08:45:48;;;;;;;19.83;14.97;;;;;;;;;;5092203;28;20445;-68
2021/09/08 08:48:15;;;;;;;23.10;16.00;;;;;;;;;;5091852;28;20437;-68
2021/09/08 08:50:43;;;;;;;15.40;13.80;;;;;;;;;;5093783;28;20425;-68
2021/09/08 08:53:11;;;;;;;14.93;13.13;;;;;;;;;;5093566;28;20533;-68
2021/09/08 08:55:38;;;;;;;18.63;13.70;;;;;;;;;;5093358;28;20433;-68
2021/09/08 08:58:05;;;;;;;16.37;13.90;;;;;;;;;;5092393;28;20435;-68
2021/09/08 09:00:32;;;;;;;18.00;12.83;;;;;;;;;;5092071;28;20543;-68
2021/09/08 09:02:59;;;;;;;20.97;13.67;;;;;;;;;;5092483;28;20485;-68
2021/09/08 09:05:31;;;;;;;17.03;14.87;;;;;;;;;;5091155;28;20888;-68
2021/09/08 09:08:00;;;;;;;18.20;13.30;;;;;;;;;;5093028;28;20433;-68
2021/09/08 09:10:27;;;;;;;16.07;13.13;;;;;;;;;;5092954;28;20947;-68
2021/09/08 09:12:55;;;;;;;15.20;13.20;;;;;;;;;;5092971;28;20438;-69
2021/09/08 09:15:23;;;;;;;16.93;14.50;;;;;;;;;;5093069;28;20474;-68
2021/09/08 09:17:51;;;;;;;21.43;14.27;;;;;;;;;;5093367;28;20430;-68
2021/09/08 09:20:19;;;;;;;18.93;13.50;;;;;;;;;;5092885;28;20437;-68
2021/09/08 09:22:47;;;;;;;19.37;13.50;;;;;;;;;;5093083;28;20481;-68
2021/09/08 09:25:17;;;;;;;19.07;12.13;;;;;;;;;;5092861;28;20547;-68
2021/09/08 09:27:45;;;;;;;20.93;14.60;;;;;;;;;;5093391;28;20432;-69
2021/09/08 09:30:14;;;;;;;19.70;14.50;;;;;;;;;;5096877;28;20461;-68
2021/09/08 09:32:42;;;;;;;26.90;14.73;;;;;;;;;;5097037;28;20443;-69
2021/09/08 09:35:10;;;;;;;16.37;13.40;;;;;;;;;;5096512;28;20446;-67
2021/09/08 09:37:43;;;;;;;22.50;15.70;;;;;;;;;;5095455;28;20455;-67
2021/09/08 09:40:10;;;;;;;19.60;13.57;;;;;;;;;;5097040;28;20435;-68
2021/09/08 09:42:40;;;;;;;25.43;14.57;;;;;;;;;;5096857;28;20477;-68
2021/09/08 09:45:09;;;;;;;17.70;13.27;;;;;;;;;;5096795;28;20429;-67
2021/09/08 09:47:37;;;;;;;23.97;14.13;;;;;;;;;;5096163;28;20936;-67
2021/09/08 09:50:07;;;;;;;18.03;13.30;;;;;;;;;;5096869;28;20469;-67
2021/09/08 09:52:34;;;;;;;15.70;12.77;;;;;;;;;;5085743;28;20466;-68
2021/09/08 09:55:02;;;;;;;17.50;13.43;;;;;;;;;;5075707;28;20435;-67
2021/09/08 09:57:30;;;;;;;20.70;14.00;;;;;;;;;;5076170;28;20436;-67
2021/09/08 09:59:59;;;;;;;27.33;19.63;;;;;;;;;;5075614;28;20448;-67
2021/09/08 10:02:27;;;;;;;21.20;15.40;;;;;;;;;;5076257;28;20829;-67
2021/09/08 10:04:55;;;;;;;18.33;15.20;;;;;;;;;;5075682;28;20502;-68
2021/09/08 10:07:23;;;;;;;30.67;22.70;;;;;;;;;;5074861;28;20444;-68
2021/09/08 10:09:52;;;;;;;15.17;12.63;;;;;;;;;;5075939;28;20450;-67
2021/09/08 10:12:22;;;;;;;17.10;14.40;;;;;;;;;;5075999;28;20501;-67
2021/09/08 10:14:49;;;;;;;17.10;13.27;;;;;;;;;;5076715;28;20439;-67
2021/09/08 10:17:20;;;;;;;20.67;14.43;;;;;;;;;;5075033;28;20977;-67
2021/09/08 10:19:49;;;;;;;20.37;14.47;;;;;;;;;;5075629;28;20658;-67
2021/09/08 10:22:17;;;;;;;15.33;13.73;;;;;;;;;;5075275;28;20517;-67
2021/09/08 10:24:45;;;;;;;19.67;14.10;;;;;;;;;;5075229;28;20838;-67
2021/09/08 10:27:28;;;;;;;17.80;13.80;;;;;;;;;;5075569;28;20494;-67
2021/09/08 10:29:55;;;;;;;16.93;14.70;;;;;;;;;;5075086;28;20525;-67
2021/09/08 10:32:24;;;;;;;16.03;12.97;;;;;;;;;;5075105;28;20444;-67
2021/09/08 10:34:51;;;;;;;18.97;13.03;;;;;;;;;;5074956;28;20467;-67
2021/09/08 10:37:19;;;;;;;24.33;14.60;;;;;;;;;;5083181;28;20440;-67
2021/09/08 10:39:47;;;;;;;16.93;14.00;;;;;;;;;;5094886;28;20447;-66
2021/09/08 10:42:14;;;;;;;18.60;15.03;;;;;;;;;;5095054;28;21016;-66
2021/09/08 10:44:42;;;;;;;19.47;13.80;;;;;;;;;;5096119;28;20731;-66
2021/09/08 10:47:09;;;;;;;16.43;14.17;;;;;;;;;;5094590;28;20510;-66
2021/09/08 10:49:53;;;;;;;14.93;12.23;;;;;;;;;;5095337;28;20832;-66
2021/09/08 10:52:39;;;;;;;24.27;13.80;;;;;;;;;;5094666;28;20458;-66
2021/09/08 10:55:16;;;;;;;22.60;15.40;;;;;;;;;;5094890;28;20439;-66
2021/09/08 10:57:53;;;;;;;17.33;15.23;;;;;;;;;;5094236;28;20973;-66
2021/09/08 11:00:22;;;;;;;50.00;16.10;;;;;;;;;;5095364;28;20451;-66
2021/09/08 11:02:49;;;;;;;28.97;13.73;;;;;;;;;;5094964;28;20476;-66
2021/09/08 11:05:18;;;;;;;25.20;13.50;;;;;;;;;;5095460;28;20538;-66
2021/09/08 11:07:46;;;;;;;22.23;13.50;;;;;;;;;;5092873;28;20924;-66
2021/09/08 11:10:13;;;;;;;19.00;14.10;;;;;;;;;;5093961;28;20439;-66
2021/09/08 11:12:47;;;;;;;19.43;13.00;;;;;;;;;;5094968;28;20452;-66
2021/09/08 11:15:14;;;;;;;16.07;13.57;;;;;;;;;;5094984;28;20435;-66
2021/09/08 11:17:42;;;;;;;15.47;12.60;;;;;;;;;;5094535;28;20800;-66
2021/09/08 11:20:10;;;;;;;16.33;14.20;;;;;;;;;;5094832;28;20440;-67
2021/09/08 11:22:38;;;;;;;16.33;12.67;;;;;;;;;;5093817;28;21087;-66
2021/09/08 11:25:06;;;;;;;15.00;13.40;;;;;;;;;;5094284;28;20440;-66
2021/09/08 11:27:34;;;;;;;14.40;12.93;;;;;;;;;;5094458;28;20483;-66
2021/09/08 11:30:05;;;;;;;14.17;12.40;;;;;;;;;;5094692;28;20942;-66
2021/09/08 11:32:47;;;;;;;17.83;13.30;;;;;;;;;;5093887;28;20444;-67
2021/09/08 11:35:14;;;;;;;15.80;12.47;;;;;;;;;;5094087;28;20514;-69
2021/09/08 11:37:52;;;;;;;13.00;11.53;;;;;;;;;;5092159;28;20526;-67
2021/09/08 11:40:21;;;;;;;13.87;10.50;;;;;;;;;;5094296;28;20441;-67
2021/09/08 11:42:48;;;;;;;14.73;11.37;;;;;;;;;;5094278;28;20484;-67
2021/09/08 11:45:26;;;;;;;14.53;12.10;;;;;;;;;;5094268;28;20437;-67
2021/09/08 11:47:53;;;;;;;14.13;11.13;;;;;;;;;;5093839;28;20481;-67
2021/09/08 11:50:20;;;;;;;17.13;15.17;;;;;;;;;;5094466;28;20463;-67
2021/09/08 11:52:54;;;;;;;16.30;10.97;;;;;;;;;;5093351;28;20454;-67
2021/09/08 11:55:25;;;;;;;11.73;10.53;;;;;;;;;;5094650;28;20797;-67
2021/09/08 11:57:52;;;;;;;14.83;11.63;;;;;;;;;;5093403;28;20540;-67
2021/09/08 12:00:21;;;;;;;17.90;13.63;;;;;;;;;;5093433;28;20476;-67
2021/09/08 12:02:48;;;;;;;12.63;10.60;;;;;;;;;;5093465;28;21052;-67
2021/09/08 12:05:22;;;;;;;11.57;10.40;;;;;;;;;;5093939;28;20435;-67
2021/09/08 12:07:49;;;;;;;13.60;11.37;;;;;;;;;;5090695;28;20453;-67
2021/09/08 12:10:18;;;;;;;12.70;10.67;;;;;;;;;;5093560;28;20446;-66
2021/09/08 12:12:45;;;;;;;21.30;10.40;;;;;;;;;;5093402;28;20445;-66
2021/09/08 12:15:12;;;;;;;33.00;12.10;;;;;;;;;;5093504;28;20438;-66
2021/09/08 12:17:39;;;;;;;32.30;11.73;;;;;;;;;;5093063;28;20438;-66
2021/09/08 12:20:08;;;;;;;21.50;10.63;;;;;;;;;;5093309;28;20443;-66
2021/09/08 12:22:36;;;;;;;14.73;10.17;;;;;;;;;;5093021;28;20447;-66
2021/09/08 12:25:05;;;;;;;28.23;11.10;;;;;;;;;;5092552;28;20439;-66
2021/09/08 12:27:35;;;;;;;11.40;10.20;;;;;;;;;;5090669;28;20442;-69
2021/09/08 12:30:05;;;;;;;11.17;10.07;;;;;;;;;;5053618;28;20453;-65
2021/09/08 12:32:59;;;;;;;22.10;11.67;;;;;;;;;;5053070;28;20446;-68
2021/09/08 12:35:33;;;;;;;14.20;11.03;;;;;;;;;;5040135;28;20448;-66
2021/09/08 12:38:00;;;;;;;11.77;10.60;;;;;;;;;;5062319;28;20933;-66
2021/09/08 12:40:28;;;;;;;12.63;10.57;;;;;;;;;;5093129;28;20444;-67
2021/09/08 12:42:57;;;;;;;14.60;11.37;;;;;;;;;;5093086;28;21044;-67
2021/09/08 12:45:24;;;;;;;13.43;11.13;;;;;;;;;;5092946;28;21037;-67
2021/09/08 12:47:58;;;;;;;16.90;12.27;;;;;;;;;;5093271;28;20449;-67
2021/09/08 12:50:25;;;;;;;14.40;10.60;;;;;;;;;;5093183;28;20459;-67
2021/09/08 12:52:53;;;;;;;15.63;11.60;;;;;;;;;;5093401;28;20531;-68
2021/09/08 12:55:20;;;;;;;10.67;9.67;;;;;;;;;;5074494;28;20459;-67
2021/09/08 12:57:47;;;;;;;34.90;12.20;;;;;;;;;;5068349;28;20507;-67
2021/09/08 13:00:16;;;;;;;14.20;11.60;;;;;;;;;;5072651;28;20451;-66
2021/09/08 13:02:43;;;;;;;11.53;10.33;;;;;;;;;;5074029;28;20948;-67
2021/09/08 13:05:11;;;;;;;12.73;10.30;;;;;;;;;;5077240;28;20437;-68
2021/09/08 13:07:38;;;;;;;13.73;11.03;;;;;;;;;;5077001;28;20552;-68
2021/09/08 13:10:06;;;;;;;11.83;10.47;;;;;;;;;;5092815;28;20444;-67
2021/09/08 13:12:33;;;;;;;10.10;9.10;;;;;;;;;;5079022;28;20933;-67
2021/09/08 13:15:00;;;;;;;13.40;10.27;;;;;;;;;;5077300;28;20447;-67
2021/09/08 13:17:28;;;;;;;11.47;10.27;;;;;;;;;;5076871;28;20521;-67
2021/09/08 13:19:56;;;;;;;9.47;8.47;;;;;;;;;;5075953;28;20476;-67
2021/09/08 13:22:23;;;;;;;11.13;9.93;;;;;;;;;;5076247;28;20524;-67
2021/09/08 13:24:50;;;;;;;18.00;8.97;;;;;;;;;;5076604;28;20574;-67
2021/09/08 13:27:17;;;;;;;12.50;9.50;;;;;;;;;;5077021;28;20444;-67
2021/09/08 13:29:45;;;;;;;22.90;9.90;;;;;;;;;;5076825;28;20543;-67
2021/09/08 13:32:12;;;;;;;17.80;11.07;;;;;;;;;;5075844;28;20501;-67
2021/09/08 13:34:40;;;;;;;23.53;9.23;;;;;;;;;;5076559;28;20468;-67
2021/09/08 13:37:08;;;;;;;15.50;12.27;;;;;;;;;;5076305;28;20438;-67
2021/09/08 13:39:35;;;;;;;24.43;10.50;;;;;;;;;;5073533;28;20455;-68
2021/09/08 13:42:02;;;;;;;15.50;8.33;;;;;;;;;;5076170;28;20466;-67
2021/09/08 13:44:30;;;;;;;12.53;9.47;;;;;;;;;;5076226;28;20568;-67
2021/09/08 13:46:58;;;;;;;12.93;8.80;;;;;;;;;;5076219;28;20434;-67
2021/09/08 13:49:25;;;;;;;11.77;8.83;;;;;;;;;;5075999;28;21003;-67
2021/09/08 13:51:54;;;;;;;14.00;12.30;;;;;;;;;;5076192;28;20474;-69
2021/09/08 13:54:21;;;;;;;10.23;9.23;;;;;;;;;;5075594;28;20416;-68
2021/09/08 13:56:48;;;;;;;9.30;8.40;;;;;;;;;;5075899;28;20449;-69
2021/09/08 13:59:15;;;;;;;9.97;8.93;;;;;;;;;;5075731;28;20798;-69
2021/09/08 14:01:42;;;;;;;10.33;8.70;;;;;;;;;;5075843;28;20441;-68
2021/09/08 14:04:10;;;;;;;10.27;8.97;;;;;;;;;;5075834;28;20488;-69
2021/09/08 14:06:37;;;;;;;9.80;8.03;;;;;;;;;;5076114;28;20585;-69
2021/09/08 14:09:05;;;;;;;8.90;8.00;;;;;;;;;;5075805;28;20479;-68
2021/09/08 14:11:33;;;;;;;10.97;9.23;;;;;;;;;;5073230;28;20492;-68
2021/09/08 14:14:00;;;;;;;12.90;8.97;;;;;;;;;;5074279;28;20525;-68
2021/09/08 14:16:27;;;;;;;9.03;8.20;;;;;;;;;;5075551;28;20435;-69
2021/09/08 14:18:55;;;;;;;9.60;8.70;;;;;;;;;;5075518;28;20960;-68
2021/09/08 14:21:22;;;;;;;10.50;9.10;;;;;;;;;;5075467;28;20443;-68
2021/09/08 14:23:49;;;;;;;10.10;8.67;;;;;;;;;;5075015;28;20991;-68